Time;durP1;ratioP1;P1;durP2;ratioP2;P2;SDS_P1;SDS_P2;PMS_P1;PMS_P2;Temp;Humidity;BMP_temperature;BMP_pressure;BME280_temperature;BME280_humidity;BME280_pressure;Samples;Min_cycle;Max_cycle;Signal;HPM_P1;HPM_P2
2022/09/04 00:02:07;;;;;;;6.83;4.50;;;18.00;83.30;;;;;;5103796;27;20180;-58
2022/09/04 00:05:00;;;;;;;4.00;3.60;;;18.00;83.60;;;;;;5102605;28;20272;-58
2022/09/04 00:07:53;;;;;;;6.27;4.20;;;18.00;83.70;;;;;;5099698;28;20211;-58
2022/09/04 00:10:47;;;;;;;4.93;4.40;;;18.00;83.30;;;;;;5090447;28;20238;-58
2022/09/04 00:13:27;;;;;;;4.77;4.27;;;18.00;83.30;;;;;;5104300;27;20200;-58
2022/09/04 00:16:02;;;;;;;5.67;4.20;;;18.00;83.40;;;;;;5090634;28;20196;-58
2022/09/04 00:18:52;;;;;;;5.13;4.20;;;18.00;83.30;;;;;;5094469;28;20205;-58
2022/09/04 00:21:43;;;;;;;5.00;4.17;;;18.00;83.10;;;;;;5097007;28;20190;-58
2022/09/04 00:24:41;;;;;;;4.97;4.27;;;18.00;83.10;;;;;;5091540;28;20176;-58
2022/09/04 00:27:18;;;;;;;5.53;4.50;;;17.90;82.90;;;;;;5088377;28;20208;-58
2022/09/04 00:30:00;;;;;;;6.00;4.07;;;17.90;83.10;;;;;;5097247;28;20188;-58
2022/09/04 00:32:53;;;;;;;6.50;4.37;;;17.90;83.30;;;;;;5097524;28;20188;-58
2022/09/04 00:35:23;;;;;;;4.33;3.93;;;18.00;83.40;;;;;;5097035;28;20184;-58
2022/09/04 00:37:56;;;;;;;5.70;4.33;;;18.00;83.20;;;;;;5096194;27;20204;-58
2022/09/04 00:40:40;;;;;;;10.20;4.00;;;18.00;83.10;;;;;;5097788;28;20189;-58
2022/09/04 00:43:28;;;;;;;3.83;3.53;;;18.00;83.10;;;;;;5096361;28;20211;-58
2022/09/04 00:46:24;;;;;;;4.50;3.63;;;17.90;83.20;;;;;;5096769;28;20212;-58
2022/09/04 00:49:12;;;;;;;5.87;3.77;;;17.90;83.20;;;;;;5101110;27;20188;-58
2022/09/04 00:51:44;;;;;;;4.93;3.47;;;17.90;83.10;;;;;;5102390;28;20234;-58
2022/09/04 00:54:25;;;;;;;6.17;4.40;;;17.80;83.00;;;;;;5111112;27;20196;-58
2022/09/04 00:57:21;;;;;;;6.37;3.93;;;17.80;83.20;;;;;;5103429;28;20215;-58
2022/09/04 01:00:03;;;;;;;4.10;3.80;;;17.80;83.30;;;;;;5104272;27;20175;-58
2022/09/04 01:02:49;;;;;;;6.47;3.60;;;17.80;83.40;;;;;;5094497;27;20223;-58
2022/09/04 01:05:30;;;;;;;3.87;3.57;;;17.80;83.30;;;;;;5093786;27;20309;-58
2022/09/04 01:08:06;;;;;;;6.30;4.10;;;17.70;83.50;;;;;;5086160;28;20263;-58
2022/09/04 01:11:04;;;;;;;4.23;3.90;;;17.70;83.40;;;;;;5095722;28;20209;-58
2022/09/04 01:13:42;;;;;;;3.83;3.40;;;17.70;83.30;;;;;;5115871;28;20205;-58
2022/09/04 01:16:25;;;;;;;6.00;4.40;;;17.60;83.10;;;;;;5110192;27;20256;-58
2022/09/04 01:19:11;;;;;;;4.37;3.50;;;17.50;83.10;;;;;;5098584;28;20269;-58
2022/09/04 01:21:43;;;;;;;4.53;3.63;;;17.50;83.00;;;;;;5093079;27;20245;-58
2022/09/04 01:24:18;;;;;;;6.30;3.53;;;17.40;83.10;;;;;;5095324;28;20188;-58
2022/09/04 01:27:27;;;;;;;6.83;3.70;;;17.40;83.80;;;;;;5107027;28;20194;-58
2022/09/04 01:30:07;;;;;;;7.07;3.60;;;17.40;83.70;;;;;;5093361;28;20325;-58
2022/09/04 01:33:26;;;;;;;6.00;3.70;;;17.30;83.50;;;;;;5104311;28;20187;-58
2022/09/04 01:36:11;;;;;;;11.03;4.00;;;17.30;83.70;;;;;;5035775;28;20182;-58
2022/09/04 01:38:55;;;;;;;4.10;3.07;;;17.30;83.60;;;;;;5106404;27;20259;-58
2022/09/04 01:41:32;;;;;;;4.37;3.83;;;17.30;83.60;;;;;;5102376;27;20191;-58
2022/09/04 01:43:58;;;;;;;4.13;3.73;;;17.30;83.70;;;;;;5105512;27;20225;-58
2022/09/04 01:47:02;;;;;;;4.37;3.83;;;17.30;84.00;;;;;;5070406;27;20180;-58
2022/09/04 01:49:38;;;;;;;4.00;3.60;;;17.30;83.80;;;;;;5091225;27;20198;-58
2022/09/04 01:52:21;;;;;;;3.50;3.20;;;17.30;84.00;;;;;;5099858;28;20184;-58
2022/09/04 01:55:17;;;;;;;7.83;3.40;;;17.30;83.80;;;;;;5096301;28;20275;-58
2022/09/04 01:58:01;;;;;;;4.80;3.57;;;17.20;83.40;;;;;;5110833;28;20283;-58
2022/09/04 02:00:33;;;;;;;6.20;4.40;;;17.20;83.40;;;;;;5099896;28;20238;-58
2022/09/04 02:03:09;;;;;;;4.17;3.40;;;17.10;83.30;;;;;;5101216;27;20181;-58
2022/09/04 02:05:53;;;;;;;3.13;2.83;;;17.00;83.50;;;;;;5095621;28;20180;-58
2022/09/04 02:08:28;;;;;;;7.60;3.53;;;17.00;83.60;;;;;;5103164;27;20242;-58
2022/09/04 02:11:01;;;;;;;6.97;4.30;;;17.00;83.60;;;;;;5100410;28;20229;-58
2022/09/04 02:13:39;;;;;;;4.80;3.67;;;16.90;83.80;;;;;;5099370;27;20184;-58
2022/09/04 02:16:14;;;;;;;5.80;3.60;;;16.80;83.80;;;;;;5088345;28;20184;-58
2022/09/04 02:19:24;;;;;;;7.00;3.13;;;16.80;83.80;;;;;;5100501;28;20208;-58
2022/09/04 02:22:12;;;;;;;4.27;3.40;;;16.80;83.90;;;;;;5079440;28;20197;-58
2022/09/04 02:25:05;;;;;;;4.47;3.17;;;16.70;83.80;;;;;;5116596;27;20216;-58
2022/09/04 02:27:57;;;;;;;3.97;3.60;;;16.70;84.00;;;;;;5099540;28;20231;-58
2022/09/04 02:30:23;;;;;;;4.17;3.83;;;16.70;84.00;;;;;;5063083;27;20206;-58
2022/09/04 02:33:05;;;;;;;3.80;3.00;;;16.60;84.20;;;;;;5088247;28;20208;-58
2022/09/04 02:35:42;;;;;;;3.17;2.97;;;16.70;84.30;;;;;;5109436;27;20208;-58
2022/09/04 02:38:31;;;;;;;4.83;3.80;;;16.80;84.00;;;;;;5087810;28;20192;-58
2022/09/04 02:41:13;;;;;;;4.97;3.47;;;16.70;84.10;;;;;;5112957;27;20187;-58
2022/09/04 02:43:48;;;;;;;5.30;4.20;;;16.70;83.90;;;;;;5116974;27;20207;-58
2022/09/04 02:46:27;;;;;;;3.83;3.37;;;16.70;84.00;;;;;;5098542;27;20216;-58
2022/09/04 02:49:16;;;;;;;3.93;3.53;;;16.60;84.10;;;;;;5103464;28;20560;-58
2022/09/04 02:52:11;;;;;;;3.67;3.33;;;16.60;84.20;;;;;;5095249;27;20192;-58
2022/09/04 02:55:02;;;;;;;3.53;3.23;;;16.60;84.50;;;;;;5101173;28;20203;-58
2022/09/04 02:58:06;;;;;;;3.77;3.20;;;16.60;84.40;;;;;;5097624;28;20208;-58
2022/09/04 03:01:03;;;;;;;3.63;3.10;;;16.60;84.30;;;;;;5083855;28;20208;-58
2022/09/04 03:03:29;;;;;;;4.67;3.50;;;16.50;84.20;;;;;;5092267;28;20192;-58
2022/09/04 03:06:21;;;;;;;3.97;2.93;;;16.50;84.60;;;;;;5097301;28;20180;-58
2022/09/04 03:09:02;;;;;;;3.67;3.23;;;16.50;84.30;;;;;;5099955;28;20240;-58
2022/09/04 03:11:40;;;;;;;3.30;3.07;;;16.50;84.10;;;;;;5090443;28;20181;-58
2022/09/04 03:14:16;;;;;;;3.70;3.40;;;16.50;84.20;;;;;;5111773;27;20211;-58
2022/09/04 03:17:08;;;;;;;6.33;3.47;;;16.50;84.20;;;;;;5086770;28;20192;-58
2022/09/04 03:19:42;;;;;;;5.40;3.30;;;16.40;84.30;;;;;;5111164;28;20191;-58
2022/09/04 03:22:23;;;;;;;2.83;2.63;;;16.40;84.30;;;;;;5099163;28;20203;-58
2022/09/04 03:25:26;;;;;;;5.03;3.40;;;16.40;84.20;;;;;;5110634;28;20276;-58
2022/09/04 03:27:52;;;;;;;4.57;3.57;;;16.40;84.30;;;;;;5102986;28;20239;-58
2022/09/04 03:30:18;;;;;;;3.73;3.37;;;16.30;84.30;;;;;;5091273;27;20180;-58
2022/09/04 03:33:03;;;;;;;4.40;3.60;;;16.30;84.40;;;;;;5071137;28;20197;-58
2022/09/04 03:35:53;;;;;;;5.13;3.47;;;16.30;84.40;;;;;;5092521;27;20203;-58
2022/09/04 03:38:28;;;;;;;3.83;3.40;;;16.30;84.50;;;;;;5098355;28;20205;-58
2022/09/04 03:41:12;;;;;;;3.70;3.27;;;16.30;84.60;;;;;;5102559;27;20176;-58
2022/09/04 03:43:37;;;;;;;5.70;3.20;;;16.20;84.80;;;;;;5097024;28;20173;-58
2022/09/04 03:46:22;;;;;;;4.00;3.53;;;16.20;84.90;;;;;;5089111;28;20184;-58
2022/09/04 03:49:00;;;;;;;3.87;3.07;;;16.20;84.80;;;;;;5099208;28;20180;-58
2022/09/04 03:51:34;;;;;;;4.90;3.40;;;16.20;84.80;;;;;;5097956;28;20207;-58
2022/09/04 03:54:25;;;;;;;3.23;3.03;;;16.20;84.70;;;;;;5100031;28;20234;-58
2022/09/04 03:57:23;;;;;;;3.77;3.27;;;16.20;84.80;;;;;;5090518;27;20220;-58
2022/09/04 04:00:01;;;;;;;3.60;3.30;;;16.20;84.70;;;;;;5063386;28;20260;-58
2022/09/04 04:03:01;;;;;;;4.03;3.17;;;16.20;84.80;;;;;;5093318;27;20264;-58
2022/09/04 04:05:57;;;;;;;3.67;2.70;;;16.20;84.50;;;;;;5111492;28;20189;-58
2022/09/04 04:09:02;;;;;;;3.03;2.80;;;16.10;84.70;;;;;;5100083;28;20183;-58
2022/09/04 04:11:31;;;;;;;3.63;2.80;;;16.10;84.90;;;;;;5092039;28;20187;-58
2022/09/04 04:14:02;;;;;;;3.43;3.13;;;16.10;84.80;;;;;;5096777;28;20275;-58
2022/09/04 04:16:53;;;;;;;4.40;2.90;;;16.10;84.60;;;;;;5097332;28;20188;-58
2022/09/04 04:19:27;;;;;;;3.43;3.13;;;16.00;84.50;;;;;;5089375;27;20184;-58
2022/09/04 04:21:55;;;;;;;7.10;3.40;;;16.00;84.70;;;;;;5100266;28;20201;-58
2022/09/04 04:24:37;;;;;;;3.37;2.97;;;15.90;84.60;;;;;;5105488;27;20188;-58
2022/09/04 04:27:39;;;;;;;4.67;3.07;;;15.80;84.90;;;;;;5101588;28;20187;-59
2022/09/04 04:30:13;;;;;;;3.20;2.90;;;15.80;85.00;;;;;;5111628;28;20191;-58
2022/09/04 04:32:52;;;;;;;4.13;3.17;;;15.80;85.00;;;;;;5096681;28;20181;-58
2022/09/04 04:35:24;;;;;;;3.30;3.00;;;15.70;85.00;;;;;;5091696;28;20176;-58
2022/09/04 04:38:07;;;;;;;3.47;2.90;;;15.80;85.30;;;;;;5099511;27;20287;-58
2022/09/04 04:41:01;;;;;;;3.00;2.80;;;15.70;84.90;;;;;;5097021;28;20258;-58
2022/09/04 04:43:52;;;;;;;3.80;3.40;;;15.70;84.70;;;;;;5082672;28;20184;-58
2022/09/04 04:46:20;;;;;;;3.53;3.20;;;15.60;84.90;;;;;;5097580;27;20181;-58
2022/09/04 04:49:03;;;;;;;5.10;3.37;;;15.60;84.90;;;;;;5096849;28;20184;-58
2022/09/04 04:51:39;;;;;;;3.30;3.00;;;15.60;84.90;;;;;;5109329;27;20330;-58
2022/09/04 04:54:41;;;;;;;4.67;2.80;;;15.70;84.70;;;;;;5097286;28;20211;-58
2022/09/04 04:57:12;;;;;;;3.33;3.00;;;15.60;84.80;;;;;;5096841;28;20216;-58
2022/09/04 05:00:06;;;;;;;3.73;3.33;;;15.60;84.70;;;;;;5095807;28;20203;-58
2022/09/04 05:03:01;;;;;;;3.53;3.23;;;15.50;84.80;;;;;;5096819;28;20188;-58
2022/09/04 05:05:55;;;;;;;3.33;3.00;;;15.50;85.10;;;;;;5102310;27;20188;-58
2022/09/04 05:08:36;;;;;;;4.27;3.27;;;15.60;84.90;;;;;;5096014;28;20191;-58
2022/09/04 05:11:09;;;;;;;3.10;2.70;;;15.60;84.90;;;;;;5089123;27;20191;-58
2022/09/04 05:13:39;;;;;;;3.00;2.67;;;15.50;84.90;;;;;;5101135;28;20196;-57
2022/09/04 05:16:46;;;;;;;2.73;2.53;;;15.50;85.10;;;;;;5100460;28;20195;-58
2022/09/04 05:19:49;;;;;;;2.53;2.33;;;15.60;85.10;;;;;;5116327;27;20195;-58
2022/09/04 05:22:24;;;;;;;2.80;2.60;;;15.60;85.20;;;;;;5085121;28;20220;-58
2022/09/04 05:25:01;;;;;;;3.00;2.70;;;15.60;85.10;;;;;;5095850;28;20279;-58
2022/09/04 05:27:38;;;;;;;3.20;2.80;;;15.60;85.20;;;;;;5101928;28;20247;-57
2022/09/04 05:30:05;;;;;;;3.10;2.80;;;15.60;85.40;;;;;;5097200;28;20205;-58
2022/09/04 05:32:38;;;;;;;4.50;3.50;;;15.60;85.40;;;;;;5096375;28;20188;-58
2022/09/04 05:35:16;;;;;;;4.23;2.70;;;15.60;85.50;;;;;;5114044;28;20180;-59
2022/09/04 05:38:10;;;;;;;3.20;2.90;;;15.60;85.60;;;;;;5093395;28;20219;-58
2022/09/04 05:40:47;;;;;;;2.83;2.63;;;15.60;85.70;;;;;;5097302;28;20191;-58
2022/09/04 05:43:16;;;;;;;2.73;2.53;;;15.60;85.70;;;;;;5096569;28;20203;-58
2022/09/04 05:46:01;;;;;;;3.40;3.10;;;15.70;85.80;;;;;;5097191;28;20189;-58
2022/09/04 05:48:56;;;;;;;3.17;2.87;;;15.70;85.80;;;;;;5084766;28;20188;-58
2022/09/04 05:51:37;;;;;;;3.40;2.70;;;15.70;86.00;;;;;;5096249;28;20690;-58
2022/09/04 05:54:21;;;;;;;3.87;2.77;;;15.80;85.90;;;;;;5095620;28;20198;-59
2022/09/04 05:57:05;;;;;;;2.93;2.73;;;15.80;85.70;;;;;;5090489;28;20199;-58
2022/09/04 06:00:05;;;;;;;2.70;2.47;;;15.80;85.70;;;;;;5096140;28;20249;-59
2022/09/04 06:02:36;;;;;;;2.80;2.43;;;15.80;85.70;;;;;;5087866;28;20214;-59
2022/09/04 06:05:28;;;;;;;2.80;2.33;;;15.80;85.70;;;;;;5107836;28;20201;-59
2022/09/04 06:08:25;;;;;;;2.70;2.50;;;15.90;85.70;;;;;;5102937;28;20196;-59
2022/09/04 06:11:05;;;;;;;3.33;2.77;;;15.90;85.80;;;;;;5088084;28;20192;-58
2022/09/04 06:13:46;;;;;;;3.43;3.07;;;16.00;85.60;;;;;;5094216;28;20203;-59
2022/09/04 06:16:30;;;;;;;3.90;2.37;;;16.00;85.60;;;;;;5098684;28;20193;-58
2022/09/04 06:19:18;;;;;;;2.93;2.37;;;16.00;85.60;;;;;;5096044;28;20208;-59
2022/09/04 06:22:07;;;;;;;3.00;2.67;;;16.00;85.60;;;;;;5105248;27;20180;-59
2022/09/04 06:24:46;;;;;;;3.80;3.13;;;16.10;85.60;;;;;;5108310;27;20196;-59
2022/09/04 06:27:30;;;;;;;3.07;2.77;;;16.10;85.70;;;;;;5097952;28;20196;-60
2022/09/04 06:30:14;;;;;;;3.47;3.17;;;16.20;85.70;;;;;;5092245;28;20207;-58
2022/09/04 06:33:04;;;;;;;2.50;2.30;;;16.20;85.70;;;;;;5090307;28;20205;-58
2022/09/04 06:36:04;;;;;;;3.10;2.80;;;16.20;85.60;;;;;;5091053;28;20199;-58
2022/09/04 06:38:50;;;;;;;3.27;3.00;;;16.30;85.50;;;;;;5097029;28;20213;-58
2022/09/04 06:41:27;;;;;;;3.20;2.70;;;16.30;85.50;;;;;;5098927;28;20180;-58
2022/09/04 06:44:01;;;;;;;3.30;2.47;;;16.30;85.40;;;;;;5096178;28;20207;-59
2022/09/04 06:46:48;;;;;;;2.70;2.37;;;16.40;85.40;;;;;;5088809;28;20184;-60
2022/09/04 06:49:21;;;;;;;3.00;2.80;;;16.40;85.10;;;;;;5099001;28;20188;-60
2022/09/04 06:52:08;;;;;;;2.57;2.33;;;16.50;84.80;;;;;;5098870;28;20192;-61
2022/09/04 06:55:04;;;;;;;2.67;2.47;;;16.60;84.20;;;;;;5098111;28;20189;-62
2022/09/04 06:58:05;;;;;;;2.87;2.60;;;16.70;84.10;;;;;;5097807;28;20220;-62
2022/09/04 07:00:59;;;;;;;4.27;2.43;;;16.80;83.80;;;;;;5105651;27;20207;-62
2022/09/04 07:03:54;;;;;;;2.53;2.33;;;16.80;83.70;;;;;;5098219;28;20214;-62
2022/09/04 07:07:04;;;;;;;2.27;2.10;;;16.90;82.90;;;;;;5088636;28;20234;-62
2022/09/04 07:09:34;;;;;;;3.90;2.03;;;17.00;82.80;;;;;;5104577;28;20321;-62
2022/09/04 07:12:08;;;;;;;2.37;2.17;;;17.00;82.80;;;;;;5090166;28;20239;-62
2022/09/04 07:14:58;;;;;;;5.40;2.20;;;17.10;82.40;;;;;;5104578;28;20196;-62
2022/09/04 07:17:32;;;;;;;2.50;2.30;;;17.20;82.30;;;;;;5087053;28;20209;-62
2022/09/04 07:20:16;;;;;;;2.43;2.23;;;17.30;82.20;;;;;;5095004;28;20185;-62
2022/09/04 07:23:31;;;;;;;2.70;2.33;;;17.30;82.20;;;;;;5105711;28;20192;-62
2022/09/04 07:26:10;;;;;;;2.83;2.10;;;17.30;81.40;;;;;;5077931;27;20196;-62
2022/09/04 07:28:50;;;;;;;2.23;2.03;;;17.40;80.70;;;;;;5094176;28;20223;-62
2022/09/04 07:31:44;;;;;;;2.33;2.13;;;17.50;80.50;;;;;;5094700;28;20181;-62
2022/09/04 07:34:26;;;;;;;5.47;2.37;;;17.70;79.70;;;;;;5095466;28;20218;-62
2022/09/04 07:37:21;;;;;;;3.37;1.87;;;17.80;79.30;;;;;;5084678;28;20220;-62
2022/09/04 07:40:04;;;;;;;2.30;2.10;;;17.80;79.40;;;;;;5096327;28;20226;-62
2022/09/04 07:42:38;;;;;;;2.73;2.00;;;17.80;79.40;;;;;;5088762;28;20210;-62
2022/09/04 07:45:22;;;;;;;2.90;2.60;;;17.80;79.40;;;;;;5095448;28;20188;-61
2022/09/04 07:48:10;;;;;;;3.30;2.40;;;17.80;79.60;;;;;;5093152;27;20177;-61
2022/09/04 07:51:03;;;;;;;2.30;2.10;;;17.90;79.50;;;;;;5092526;28;20180;-61
2022/09/04 07:53:47;;;;;;;2.20;2.10;;;18.00;78.70;;;;;;5092910;28;20195;-61
2022/09/04 07:56:28;;;;;;;2.30;2.10;;;18.00;79.10;;;;;;5109881;28;20188;-61
2022/09/04 07:59:38;;;;;;;3.67;2.23;;;18.00;79.40;;;;;;5093382;28;20208;-61
2022/09/04 08:02:40;;;;;;;2.40;2.20;;;18.10;79.20;;;;;;5079325;28;20430;-61
2022/09/04 08:05:22;;;;;;;2.40;1.90;;;18.20;78.30;;;;;;5092452;28;20192;-63
2022/09/04 08:08:12;;;;;;;2.07;1.97;;;18.40;77.50;;;;;;5085126;28;20189;-61
2022/09/04 08:10:53;;;;;;;3.33;2.20;;;18.50;77.80;;;;;;5096185;28;20181;-61
2022/09/04 08:13:57;;;;;;;2.73;1.93;;;18.60;77.60;;;;;;5089130;28;20184;-61
2022/09/04 08:16:51;;;;;;;2.00;1.90;;;18.60;77.40;;;;;;5087143;28;20191;-61
2022/09/04 08:19:44;;;;;;;2.20;2.00;;;18.60;77.80;;;;;;5088110;28;20200;-61
2022/09/04 08:22:18;;;;;;;2.53;1.90;;;18.60;77.30;;;;;;5089306;28;20209;-62
2022/09/04 08:25:02;;;;;;;1.77;1.67;;;18.70;77.30;;;;;;5092322;27;20180;-62
2022/09/04 08:27:59;;;;;;;1.93;1.73;;;18.70;76.40;;;;;;5103202;28;20224;-62
2022/09/04 08:30:33;;;;;;;1.60;1.50;;;18.80;76.20;;;;;;5070470;28;20194;-62
2022/09/04 08:33:17;;;;;;;1.43;1.33;;;19.00;74.30;;;;;;5072581;28;20328;-62
2022/09/04 08:35:55;;;;;;;1.87;1.63;;;19.10;74.10;;;;;;5072509;28;20220;-62
2022/09/04 08:38:47;;;;;;;1.60;1.50;;;19.00;73.30;;;;;;5074072;28;20209;-63
2022/09/04 08:41:38;;;;;;;1.70;1.60;;;19.20;72.30;;;;;;5089907;28;20189;-63
2022/09/04 08:44:26;;;;;;;2.33;1.53;;;19.20;73.00;;;;;;5070223;28;20193;-62
2022/09/04 08:46:55;;;;;;;1.63;1.53;;;19.10;73.80;;;;;;5074086;28;20189;-63
2022/09/04 08:50:03;;;;;;;1.47;1.37;;;19.00;74.30;;;;;;5074540;28;20220;-63
2022/09/04 08:53:17;;;;;;;1.60;1.50;;;19.00;74.60;;;;;;5091715;28;20188;-62
2022/09/04 08:56:17;;;;;;;1.73;1.60;;;19.10;73.00;;;;;;5094140;28;20260;-63
2022/09/04 08:59:01;;;;;;;1.40;1.30;;;19.30;71.60;;;;;;5092283;28;20286;-63
2022/09/04 09:01:56;;;;;;;1.60;1.50;;;19.30;72.50;;;;;;5074628;28;20193;-63
2022/09/04 09:04:46;;;;;;;2.90;1.70;;;19.30;73.30;;;;;;5085506;28;20193;-63
2022/09/04 09:07:24;;;;;;;1.70;1.60;;;19.40;73.90;;;;;;5088552;28;20185;-63
2022/09/04 09:10:08;;;;;;;2.50;1.40;;;19.40;74.20;;;;;;5068583;28;20212;-63
2022/09/04 09:12:59;;;;;;;1.70;1.60;;;19.50;73.90;;;;;;5063900;28;20193;-63
2022/09/04 09:15:37;;;;;;;2.20;2.00;;;19.60;73.60;;;;;;5090023;28;20185;-63
2022/09/04 09:18:40;;;;;;;2.77;1.60;;;19.70;71.20;;;;;;5065241;28;20607;-63
2022/09/04 09:21:11;;;;;;;2.00;1.90;;;19.80;70.30;;;;;;5073368;28;20281;-63
2022/09/04 09:24:13;;;;;;;1.83;1.70;;;19.80;70.90;;;;;;5076335;28;20188;-63
2022/09/04 09:27:02;;;;;;;1.70;1.60;;;19.90;70.20;;;;;;5074405;28;20316;-63
2022/09/04 09:30:03;;;;;;;1.67;1.57;;;20.00;69.40;;;;;;5081591;28;20214;-63
2022/09/04 09:32:53;;;;;;;2.37;1.83;;;20.10;68.60;;;;;;5055405;28;20223;-63
2022/09/04 09:36:06;;;;;;;1.70;1.60;;;20.10;69.40;;;;;;5092847;28;20690;-62
2022/09/04 09:38:35;;;;;;;1.77;1.67;;;20.20;69.70;;;;;;5073178;28;20220;-65
2022/09/04 09:41:28;;;;;;;1.83;1.70;;;20.30;70.60;;;;;;5076030;28;20185;-64
2022/09/04 09:44:41;;;;;;;1.50;1.40;;;20.30;70.80;;;;;;5084669;28;20272;-64
2022/09/04 09:47:31;;;;;;;1.80;1.70;;;20.30;70.90;;;;;;5072510;28;20203;-64
2022/09/04 09:50:38;;;;;;;2.13;2.03;;;20.40;70.10;;;;;;5071276;28;20180;-64
2022/09/04 09:53:16;;;;;;;2.10;1.70;;;20.40;69.30;;;;;;4988746;28;20219;-63
2022/09/04 09:56:26;;;;;;;1.70;1.57;;;20.70;69.20;;;;;;5001058;28;20188;-63
2022/09/04 09:59:26;;;;;;;2.27;2.07;;;20.70;69.40;;;;;;5050768;28;20251;-64
2022/09/04 10:02:38;;;;;;;2.00;1.90;;;20.70;68.60;;;;;;5098078;28;20185;-62
2022/09/04 10:05:53;;;;;;;1.73;1.53;;;20.70;69.10;;;;;;5048501;28;20300;-63
2022/09/04 10:08:36;;;;;;;2.83;1.80;;;20.80;69.40;;;;;;5078726;28;20180;-63
2022/09/04 10:11:12;;;;;;;3.47;2.20;;;20.80;67.70;;;;;;5095647;28;20263;-62
2022/09/04 10:14:13;;;;;;;3.27;2.10;;;20.90;69.20;;;;;;5076626;28;20211;-62
2022/09/04 10:17:06;;;;;;;2.17;1.90;;;21.00;68.30;;;;;;5067737;28;20211;-63
2022/09/04 10:19:53;;;;;;;2.73;2.10;;;21.10;66.10;;;;;;5079815;28;20204;-62
2022/09/04 10:22:22;;;;;;;2.20;2.00;;;21.10;67.40;;;;;;5073758;28;20203;-63
2022/09/04 10:25:25;;;;;;;2.00;1.80;;;21.30;66.70;;;;;;5077366;28;20211;-63
2022/09/04 10:28:15;;;;;;;2.20;2.00;;;21.40;64.70;;;;;;5080210;28;20289;-63
2022/09/04 10:30:52;;;;;;;1.80;1.70;;;21.60;65.10;;;;;;5081539;28;20189;-62
2022/09/04 10:33:56;;;;;;;3.57;2.10;;;21.70;64.60;;;;;;5091381;28;20193;-61
2022/09/04 10:36:48;;;;;;;1.97;1.87;;;21.70;66.20;;;;;;5084720;28;20194;-60
2022/09/04 10:43:18;;;;;;;2.87;2.57;;;21.80;65.70;;;;;;5105000;28;20270;-61
2022/09/04 10:45:46;;;;;;;4.47;2.30;;;21.80;66.30;;;;;;5034021;28;20195;-61
2022/09/04 10:48:22;;;;;;;2.10;2.00;;;21.80;67.20;;;;;;5007606;28;20187;-61
2022/09/04 10:51:26;;;;;;;2.00;1.80;;;21.90;67.40;;;;;;5076664;28;20223;-61
2022/09/04 10:54:07;;;;;;;6.13;3.20;;;21.90;67.60;;;;;;5066691;28;20208;-61
2022/09/04 10:56:45;;;;;;;3.70;3.13;;;21.90;69.20;;;;;;5099780;28;20196;-61
2022/09/04 10:59:32;;;;;;;2.47;2.20;;;22.00;70.20;;;;;;5072066;28;20243;-61
2022/09/04 11:02:21;;;;;;;3.90;2.33;;;22.10;69.60;;;;;;5078829;28;20193;-61
2022/09/04 11:05:03;;;;;;;3.03;2.23;;;22.20;70.00;;;;;;5064183;28;20257;-61
2022/09/04 11:07:50;;;;;;;2.63;2.43;;;22.40;67.40;;;;;;5077259;28;20185;-60
2022/09/04 11:10:25;;;;;;;2.43;2.23;;;22.60;68.70;;;;;;5064787;28;20245;-61
2022/09/04 11:13:08;;;;;;;2.10;1.90;;;22.60;67.70;;;;;;5067577;28;20199;-61
2022/09/04 11:16:18;;;;;;;3.77;2.00;;;22.90;65.80;;;;;;5079811;28;20304;-61
2022/09/04 11:18:44;;;;;;;2.53;2.33;;;22.90;65.90;;;;;;5010310;28;20350;-61
2022/09/04 11:21:12;;;;;;;2.30;1.93;;;22.90;67.10;;;;;;5005897;28;20216;-61
2022/09/04 11:24:07;;;;;;;2.43;2.23;;;22.90;67.00;;;;;;5045273;28;20196;-61
2022/09/04 11:26:56;;;;;;;2.10;1.90;;;22.90;66.30;;;;;;5077147;28;20200;-62
2022/09/04 11:29:30;;;;;;;2.33;2.13;;;23.00;66.20;;;;;;5089358;28;20189;-61
2022/09/04 11:32:30;;;;;;;4.17;1.80;;;23.20;66.80;;;;;;5077253;28;20187;-61
2022/09/04 11:35:24;;;;;;;1.90;1.80;;;23.30;65.60;;;;;;5036356;28;20225;-61
2022/09/04 11:38:12;;;;;;;2.60;2.13;;;23.30;66.50;;;;;;5065243;28;20256;-61
2022/09/04 11:40:54;;;;;;;1.87;1.77;;;23.40;66.70;;;;;;5064913;28;20189;-61
2022/09/04 11:43:25;;;;;;;2.00;1.90;;;23.50;65.90;;;;;;5068064;28;20201;-60
2022/09/04 11:46:21;;;;;;;1.87;1.70;;;23.60;64.10;;;;;;5066772;28;20183;-61
2022/09/04 11:49:36;;;;;;;3.20;2.43;;;23.80;65.40;;;;;;5061459;28;20189;-61
2022/09/04 11:52:33;;;;;;;7.50;2.70;;;23.90;65.80;;;;;;5088583;28;20173;-61
2022/09/04 11:55:33;;;;;;;3.77;2.70;;;24.00;64.80;;;;;;5055731;28;20192;-61
2022/09/04 11:58:19;;;;;;;2.40;2.20;;;24.00;65.60;;;;;;5073137;28;20240;-61
2022/09/04 12:00:59;;;;;;;2.23;2.07;;;24.00;64.80;;;;;;5074618;28;20188;-61
2022/09/04 12:04:00;;;;;;;2.23;1.80;;;23.90;64.90;;;;;;5099810;28;20303;-61
2022/09/04 12:06:43;;;;;;;3.67;1.70;;;23.90;65.30;;;;;;5050606;28;20203;-61
2022/09/04 12:09:33;;;;;;;1.93;1.83;;;23.90;65.70;;;;;;5074782;28;20188;-61
2022/09/04 12:12:17;;;;;;;2.83;1.80;;;23.80;65.90;;;;;;5087734;28;20188;-61
2022/09/04 12:14:57;;;;;;;1.70;1.60;;;23.70;66.40;;;;;;5092955;28;20201;-61
2022/09/04 12:17:47;;;;;;;1.60;1.50;;;23.70;66.70;;;;;;5081899;28;20204;-61
2022/09/04 12:20:34;;;;;;;4.73;2.17;;;23.50;64.90;;;;;;5074277;28;20235;-60
2022/09/04 12:23:09;;;;;;;3.77;2.53;;;23.50;69.70;;;;;;5087691;28;20185;-61
2022/09/04 12:25:50;;;;;;;2.80;1.90;;;23.20;75.80;;;;;;5067579;28;20177;-61
2022/09/04 12:28:40;;;;;;;3.53;2.07;;;22.80;75.40;;;;;;5097514;27;20236;-61
2022/09/04 12:31:27;;;;;;;2.40;2.20;;;22.30;78.60;;;;;;5099092;27;20183;-61
2022/09/04 12:34:02;;;;;;;2.93;2.20;;;22.00;77.90;;;;;;5079798;28;20184;-61
2022/09/04 12:36:35;;;;;;;3.63;2.23;;;21.80;78.00;;;;;;5093424;27;20187;-61
2022/09/04 12:39:19;;;;;;;4.30;2.43;;;21.60;79.70;;;;;;5098242;27;20206;-61
2022/09/04 12:41:54;;;;;;;2.70;2.50;;;21.30;80.60;;;;;;5090537;28;20188;-62
2022/09/04 12:44:22;;;;;;;2.90;2.70;;;21.20;79.80;;;;;;5081272;28;20187;-61
2022/09/04 12:47:01;;;;;;;3.20;2.63;;;21.10;80.70;;;;;;5120764;27;20210;-61
2022/09/04 12:50:14;;;;;;;2.63;2.20;;;21.00;79.50;;;;;;5117242;27;20184;-61
2022/09/04 12:52:46;;;;;;;2.77;2.57;;;20.80;79.80;;;;;;5033809;28;20222;-61
2022/09/04 12:55:24;;;;;;;2.17;1.97;;;20.80;81.00;;;;;;5050988;28;20244;-60
2022/09/04 12:57:59;;;;;;;3.73;1.93;;;20.80;79.10;;;;;;5086698;28;20243;-60
2022/09/04 13:00:32;;;;;;;4.43;2.40;;;20.80;76.10;;;;;;5098955;28;20238;-62
2022/09/04 13:03:38;;;;;;;2.93;2.67;;;20.70;78.20;;;;;;5086839;28;20284;-62
2022/09/04 13:06:26;;;;;;;2.37;2.17;;;20.70;78.50;;;;;;5112620;28;20222;-61
2022/09/04 13:09:16;;;;;;;3.13;1.80;;;20.80;77.10;;;;;;5094538;28;20215;-63
2022/09/04 13:12:04;;;;;;;2.23;2.03;;;20.80;77.20;;;;;;5095272;28;20278;-62
2022/09/04 13:15:01;;;;;;;2.30;2.10;;;20.80;77.60;;;;;;5075672;28;20250;-62
2022/09/04 13:17:42;;;;;;;2.23;2.03;;;20.90;78.10;;;;;;5088639;28;20203;-61
2022/09/04 13:20:28;;;;;;;3.63;1.90;;;21.00;77.70;;;;;;5090196;28;20180;-63
2022/09/04 13:23:15;;;;;;;1.80;1.70;;;21.00;76.90;;;;;;5094192;28;20192;-63
2022/09/04 13:26:00;;;;;;;1.80;1.70;;;21.10;76.60;;;;;;5108118;28;20211;-61
2022/09/04 13:28:45;;;;;;;2.17;1.97;;;21.10;76.50;;;;;;5100321;28;20228;-61
2022/09/04 13:31:48;;;;;;;3.57;1.50;;;21.30;76.70;;;;;;5113259;28;20241;-61
2022/09/04 13:34:22;;;;;;;1.93;1.73;;;21.70;76.40;;;;;;5095225;28;20195;-62
2022/09/04 13:37:03;;;;;;;1.37;1.27;;;22.60;74.00;;;;;;5096190;28;20184;-63
2022/09/04 13:39:43;;;;;;;1.40;1.30;;;23.30;72.90;;;;;;5098944;28;20210;-62
2022/09/04 13:42:47;;;;;;;1.80;1.70;;;23.90;69.20;;;;;;5100966;28;20239;-62
2022/09/04 13:45:22;;;;;;;1.90;1.80;;;24.10;68.10;;;;;;5020061;28;20187;-64
2022/09/04 13:48:03;;;;;;;2.00;1.80;;;24.40;67.40;;;;;;5080504;28;20204;-63
2022/09/04 13:50:46;;;;;;;1.80;1.70;;;25.00;64.60;;;;;;5089182;28;20211;-61
2022/09/04 13:53:41;;;;;;;2.40;2.10;;;25.40;65.30;;;;;;5098385;28;20184;-64
2022/09/04 13:56:12;;;;;;;2.97;1.67;;;26.00;61.50;;;;;;5102573;28;20202;-62
2022/09/04 13:58:40;;;;;;;1.73;1.63;;;26.20;60.30;;;;;;5100150;28;20204;-62
2022/09/04 14:01:12;;;;;;;1.80;1.70;;;26.50;62.20;;;;;;5128449;28;20176;-61
2022/09/04 14:03:51;;;;;;;1.43;1.33;;;27.10;60.70;;;;;;5102384;28;20180;-58
2022/09/04 14:06:21;;;;;;;3.10;1.80;;;27.80;58.80;;;;;;5083078;28;20180;-58
2022/09/04 14:08:49;;;;;;;2.47;1.90;;;28.30;57.60;;;;;;5094020;28;20184;-60
2022/09/04 14:11:36;;;;;;;6.60;1.80;;;28.30;56.70;;;;;;5094839;28;20196;-59
2022/09/04 14:14:19;;;;;;;2.67;1.80;;;28.80;56.70;;;;;;5112246;28;20203;-59
2022/09/04 14:16:48;;;;;;;2.93;1.60;;;29.20;54.10;;;;;;5094705;28;20200;-59
2022/09/04 14:19:17;;;;;;;3.30;1.90;;;29.40;53.30;;;;;;5086896;28;20204;-58
2022/09/04 14:22:20;;;;;;;3.67;1.77;;;29.60;52.90;;;;;;5101062;28;20195;-59
2022/09/04 14:25:02;;;;;;;1.73;1.63;;;30.00;53.50;;;;;;5092120;28;20176;-59
2022/09/04 14:27:30;;;;;;;1.60;1.50;;;30.20;51.80;;;;;;5096627;28;20252;-58